91TS weather

Songbird Ranch Airport
Rosharon, Texas, United States

Public forecast

Using degrees Fahrenheit for public forecast. Weather courtesy of forecast.io.

Closest aviation weather report (METAR) to Songbird Ranch Airport

Closest report is Pearland Regional Airport, 10.5 nm (19.4 km) NNE. Retrieved 2019/10/15 03:53 UTC (60 minutes ago):

KLVJ 150353Z AUTO 11004KT 10SM FEW010 26/23 A2998 RMK AO2 SLP152 T02560233

Closest aviation forecast (TAF) to Songbird Ranch Airport

Closest forecast is Texas Gulf Coast Regional Airport, 16.9 nm (31.2 km) SSW. Retrieved 2019-10-15 00:42 UTC (4 hours ago):

TAF KLBX 142339Z 1500/1524 16008KT P6SM SCT250 FM150600 17005KT P6SM SCT030 BKN250 FM151600 21007KT P6SM SCT035 BKN100 FM152000 19009KT P6SM SCT050